Time;durP1;ratioP1;P1;durP2;ratioP2;P2;SDS_P1;SDS_P2;PMS_P1;PMS_P2;Temp;Humidity;BMP_temperature;BMP_pressure;BME280_temperature;BME280_humidity;BME280_pressure;Samples;Min_cycle;Max_cycle;Signal;HPM_P1;HPM_P2
2022/03/13 00:05:52;;;;;;;190.73;68.03;;;;;;;-5.31;50.32;100142.38;4047854;87;21058;-81
2022/03/13 00:11:54;;;;;;;181.27;66.43;;;;;;;-5.28;50.93;100149.11;4052917;86;21097;-82
2022/03/13 00:17:59;;;;;;;191.13;69.70;;;;;;;-5.43;51.17;100142.19;4054342;87;21045;-82
2022/03/13 00:24:03;;;;;;;197.82;67.27;;;;;;;-5.53;51.44;100136.16;4050191;88;21072;-81
2022/03/13 00:30:06;;;;;;;187.10;67.37;;;;;;;-5.61;51.44;100137.11;4051746;86;21032;-82
2022/03/13 00:36:08;;;;;;;206.47;68.87;;;;;;;-5.76;51.92;100142.21;4055239;87;21332;-82
2022/03/13 00:42:13;;;;;;;173.77;63.30;;;;;;;-5.77;52.26;100140.06;4053086;86;21088;-81
2022/03/13 00:48:29;;;;;;;185.47;69.43;;;;;;;-5.81;50.24;100128.23;4048367;87;21085;-81
2022/03/13 00:54:33;;;;;;;203.60;69.07;;;;;;;-5.82;51.87;100128.52;4040099;87;21098;-81
2022/03/13 01:00:36;;;;;;;191.07;71.37;;;;;;;-5.81;52.81;100132.23;4037272;87;21072;-81
2022/03/13 01:06:38;;;;;;;198.17;74.70;;;;;;;-5.85;53.32;100133.81;4036179;87;21036;-80
2022/03/13 01:12:40;;;;;;;209.90;76.87;;;;;;;-5.96;53.63;100124.54;4035525;87;21104;-81
2022/03/13 01:18:49;;;;;;;211.00;72.90;;;;;;;-6.06;53.70;100125.17;4034118;87;21103;-79
2022/03/13 01:24:53;;;;;;;165.80;66.87;;;;;;;-6.13;54.40;100117.86;4034765;87;21072;-80
2022/03/13 01:30:55;;;;;;;176.23;70.83;;;;;;;-6.22;54.12;100119.81;4035525;87;21576;-79
2022/03/13 01:36:56;;;;;;;160.83;60.73;;;;;;;-6.33;54.15;100108.17;4033484;87;21077;-79
2022/03/13 01:42:58;;;;;;;202.43;73.80;;;;;;;-6.32;55.57;100103.11;4032057;87;21381;-78
2022/03/13 01:49:08;;;;;;;172.57;68.67;;;;;;;-6.34;54.48;100090.55;4034373;86;21097;-78
2022/03/13 01:55:10;;;;;;;205.47;70.63;;;;;;;-6.39;53.87;100085.15;4033361;86;21080;-78
2022/03/13 02:01:13;;;;;;;208.47;76.07;;;;;;;-6.48;55.33;100072.45;4031162;87;21617;-78
2022/03/13 02:07:14;;;;;;;203.40;77.30;;;;;;;-6.55;54.96;100072.08;4035331;88;21515;-78
2022/03/13 02:13:18;;;;;;;180.87;66.37;;;;;;;-6.61;55.65;100070.88;4034306;87;21004;-78
2022/03/13 02:19:20;;;;;;;200.97;74.07;;;;;;;-6.71;55.65;100064.84;4035869;86;21002;-78
2022/03/13 02:25:25;;;;;;;186.00;71.07;;;;;;;-6.77;56.17;100071.63;4019208;87;21110;-79
2022/03/13 02:31:38;;;;;;;159.10;58.43;;;;;;;-6.86;55.96;100067.19;4035047;86;22033;-78
2022/03/13 02:37:41;;;;;;;181.03;66.70;;;;;;;-6.87;55.71;100070.91;4033692;86;21045;-80
2022/03/13 02:43:42;;;;;;;176.80;69.00;;;;;;;-6.94;56.65;100064.10;4032709;88;21021;-79
2022/03/13 02:49:43;;;;;;;174.77;66.33;;;;;;;-7.03;56.21;100063.64;4036676;86;21060;-80
2022/03/13 02:55:45;;;;;;;156.70;58.87;;;;;;;-7.08;55.99;100058.22;4040499;86;21085;-79
2022/03/13 03:01:48;;;;;;;167.07;59.83;;;;;;;-7.14;56.60;100062.36;4039441;86;21033;-78
2022/03/13 03:07:49;;;;;;;182.57;62.77;;;;;;;-7.19;56.51;100059.08;4040841;87;21132;-79
2022/03/13 03:13:50;;;;;;;152.73;54.77;;;;;;;-7.19;56.15;100056.42;4041360;86;21088;-79
2022/03/13 03:19:55;;;;;;;152.23;56.57;;;;;;;-7.18;56.38;100067.34;4037262;87;21030;-79
2022/03/13 03:25:56;;;;;;;147.07;56.80;;;;;;;-7.19;57.20;100066.23;4244261;81;23681;-79
2022/03/13 03:31:59;;;;;;;157.80;59.43;;;;;;;-7.13;57.86;100057.31;4312326;81;20981;-80
2022/03/13 03:38:01;;;;;;;121.97;49.47;;;;;;;-7.13;57.98;100054.14;4310973;81;20978;-79
2022/03/13 03:44:04;;;;;;;135.07;51.00;;;;;;;-7.01;58.89;100056.24;4302464;81;21016;-79
2022/03/13 03:50:06;;;;;;;147.70;54.10;;;;;;;-6.96;59.71;100058.20;4290498;81;21028;-79
2022/03/13 03:56:07;;;;;;;151.53;60.43;;;;;;;-7.08;58.86;100059.55;4296815;81;21044;-79
2022/03/13 04:02:09;;;;;;;142.87;54.47;;;;;;;-7.20;58.80;100068.08;4282289;81;21000;-79
2022/03/13 04:08:10;;;;;;;151.20;57.47;;;;;;;-7.14;59.62;100057.04;4281863;81;21533;-79
2022/03/13 04:14:12;;;;;;;171.30;63.17;;;;;;;-7.02;59.76;100047.98;4294574;81;21036;-80
2022/03/13 04:20:14;;;;;;;174.87;62.27;;;;;;;-7.03;58.63;100054.33;4271826;81;21083;-79
2022/03/13 04:26:15;;;;;;;151.33;55.77;;;;;;;-7.29;57.96;100052.70;4271298;81;21036;-79
2022/03/13 04:32:21;;;;;;;154.90;58.67;;;;;;;-7.44;59.50;100047.89;4280647;81;21627;-79
2022/03/13 04:38:20;;;;;;;174.43;63.67;;;;;;;-7.45;59.50;100053.42;4288045;81;20964;-79
2022/03/13 04:44:22;;;;;;;153.00;58.67;;;;;;;-7.53;59.47;100058.58;4295409;81;22001;-79
2022/03/13 04:50:24;;;;;;;155.10;61.93;;;;;;;-7.56;59.20;100064.36;4295159;81;21080;-79
2022/03/13 04:56:26;;;;;;;160.13;58.93;;;;;;;-7.64;59.15;100066.57;4293779;81;20996;-79
2022/03/13 05:02:27;;;;;;;159.63;60.17;;;;;;;-7.69;59.95;100075.76;4315296;81;20985;-79
2022/03/13 05:08:29;;;;;;;155.97;57.47;;;;;;;-7.66;58.87;100072.13;4287902;81;20997;-79
2022/03/13 05:14:30;;;;;;;144.30;53.10;;;;;;;-7.62;60.23;100052.51;4291408;81;20992;-79
2022/03/13 05:20:34;;;;;;;136.23;53.17;;;;;;;-7.44;59.52;100048.41;4287486;81;21088;-79
2022/03/13 05:26:35;;;;;;;151.70;61.10;;;;;;;-7.38;59.08;100052.79;4310756;81;21027;-79
2022/03/13 05:32:38;;;;;;;149.97;59.87;;;;;;;-7.49;60.46;100070.38;4288679;81;21060;-79
2022/03/13 05:38:39;;;;;;;167.73;63.80;;;;;;;-7.49;61.31;100080.20;4308731;81;21342;-80
2022/03/13 05:44:40;;;;;;;168.03;64.37;;;;;;;-7.36;61.48;100094.60;4320090;81;21917;-79
2022/03/13 05:50:41;;;;;;;161.00;62.33;;;;;;;-7.20;60.21;100086.70;4295035;81;21012;-79
2022/03/13 05:56:43;;;;;;;177.87;67.87;;;;;;;-6.93;61.07;100075.84;4301992;81;21051;-79
2022/03/13 06:02:47;;;;;;;189.13;68.67;;;;;;;-6.62;60.94;100096.70;4295604;81;21036;-79
2022/03/13 06:08:48;;;;;;;209.47;78.13;;;;;;;-6.32;63.36;100096.45;4315629;81;21036;-80
2022/03/13 06:14:49;;;;;;;231.83;91.43;;;;;;;-6.00;63.57;100098.91;4307326;81;20984;-80
2022/03/13 06:20:50;;;;;;;257.60;102.90;;;;;;;-5.69;63.92;100089.50;4306602;81;21009;-80
2022/03/13 06:26:52;;;;;;;202.00;79.87;;;;;;;-5.38;64.11;100097.72;4138061;85;20990;-80
2022/03/13 06:32:54;;;;;;;189.47;76.80;;;;;;;-5.12;61.89;100089.01;4289127;81;21071;-81
2022/03/13 06:38:55;;;;;;;180.37;71.40;;;;;;;-4.83;63.06;100096.33;4302098;81;21048;-80
2022/03/13 06:44:58;;;;;;;192.30;78.93;;;;;;;-4.59;63.22;100100.89;4317303;81;21073;-80
2022/03/13 06:51:01;;;;;;;192.57;80.07;;;;;;;-4.30;62.41;100098.27;4299104;81;21052;-81
2022/03/13 06:57:03;;;;;;;191.50;76.13;;;;;;;-4.05;62.59;100109.22;4289001;81;20965;-81
2022/03/13 07:03:04;;;;;;;180.90;76.13;;;;;;;-3.80;62.13;100114.80;4277537;81;21020;-81
2022/03/13 07:09:06;;;;;;;195.87;83.90;;;;;;;-3.55;62.62;100109.66;4291562;81;21052;-80
2022/03/13 07:15:10;;;;;;;195.87;77.83;;;;;;;-3.24;62.29;100115.50;4283580;81;21077;-80
2022/03/13 07:21:12;;;;;;;166.00;73.27;;;;;;;-2.88;62.29;100116.53;4116053;84;21112;-80
2022/03/13 07:27:16;;;;;;;156.17;64.47;;;;;;;-2.61;62.21;100111.29;4292513;81;21045;-81
2022/03/13 07:33:17;;;;;;;134.70;59.00;;;;;;;-2.37;62.29;100115.14;4290979;81;21099;-82
2022/03/13 07:39:21;;;;;;;145.40;64.93;;;;;;;-2.14;61.83;100107.95;4126092;84;21056;-81
2022/03/13 07:45:24;;;;;;;120.40;51.77;;;;;;;-1.91;62.21;100120.08;4295229;81;21016;-82
2022/03/13 07:51:25;;;;;;;121.20;47.80;;;;;;;-1.55;61.62;100108.27;4286895;81;21021;-82
2022/03/13 07:57:28;;;;;;;129.77;57.40;;;;;;;-1.26;61.85;100094.56;4286180;81;21588;-83
2022/03/13 08:03:35;;;;;;;125.03;55.70;;;;;;;-0.75;61.91;100106.00;4297605;81;21025;-83
2022/03/13 08:17:03;;;;;;;117.33;52.33;;;;;;;0.74;61.27;100104.77;4123219;85;21924;-86
2022/03/13 08:30:07;;;;;;;99.72;43.85;;;;;;;1.21;60.79;100104.83;4161022;81;21041;-85
2022/03/13 08:36:27;;;;;;;102.50;46.23;;;;;;;1.83;60.73;100101.09;4301036;81;21048;-84
2022/03/13 08:42:29;;;;;;;94.47;42.53;;;;;;;2.39;60.38;100098.36;4130666;85;21088;-84
2022/03/13 08:48:31;;;;;;;91.72;40.63;;;;;;;2.74;59.80;100090.45;4301190;81;21607;-84
2022/03/13 08:54:32;;;;;;;90.60;38.17;;;;;;;2.99;59.32;100082.46;4333542;81;21008;-84
2022/03/13 09:00:34;;;;;;;78.62;38.70;;;;;;;3.33;58.79;100082.06;4345800;81;21075;-85
2022/03/13 09:06:39;;;;;;;85.25;39.50;;;;;;;3.63;58.06;100086.32;4329871;81;22232;-84
2022/03/13 09:12:40;;;;;;;87.95;40.45;;;;;;;3.97;57.41;100090.72;4325058;81;21551;-84
2022/03/13 09:18:47;;;;;;;75.30;36.15;;;;;;;4.60;56.42;100087.29;4344790;81;21090;-84
2022/03/13 09:25:27;;;;;;;87.50;40.88;;;;;;;5.21;55.72;100089.78;4358201;81;21063;-84
2022/03/13 09:31:47;;;;;;;75.47;35.15;;;;;;;5.75;54.68;100077.89;4172614;84;21049;-85
2022/03/13 09:37:52;;;;;;;65.62;33.00;;;;;;;6.60;52.77;100069.53;4350995;81;21004;-85
2022/03/13 09:43:57;;;;;;;82.67;40.03;;;;;;;6.84;52.23;100082.06;4323245;81;21000;-86
2022/03/13 09:50:22;;;;;;;91.20;42.40;;;;;;;6.70;51.64;100073.30;4290217;81;21036;-86
2022/03/13 09:56:38;;;;;;;100.35;49.08;;;;;;;6.63;51.44;100074.33;4190702;84;21080;-85
2022/03/13 10:23:51;;;;;;;58.45;32.25;;;;;;;11.31;45.42;100032.75;3843331;92;21168;-87
2022/03/13 10:30:08;;;;;;;51.77;28.07;;;;;;;11.93;43.06;100022.28;3840132;91;21066;-87
2022/03/13 10:36:38;;;;;;;47.50;29.12;;;;;;;12.21;41.99;100020.94;3944780;89;21015;-88
2022/03/13 11:02:49;;;;;;;36.90;21.30;;;;;;;13.41;36.63;100012.95;4324790;81;21069;-89
2022/03/13 11:09:11;;;;;;;33.20;19.67;;;;;;;13.77;34.02;100015.08;4329728;81;21033;-91
2022/03/13 11:15:29;;;;;;;29.60;17.27;;;;;;;13.80;36.52;100010.78;4269037;82;21106;-89
2022/03/13 11:29:01;;;;;;;23.00;13.98;;;;;;;14.20;30.98;100013.70;4063136;85;21099;-89
2022/03/13 11:35:19;;;;;;;18.93;12.13;;;;;;;14.16;29.63;100005.39;4089855;86;21742;-89
2022/03/13 11:42:27;;;;;;;17.17;9.68;;;;;;;14.21;28.10;99991.88;4076790;82;21087;-90
2022/03/13 11:48:36;;;;;;;17.32;10.63;;;;;;;13.94;26.11;99984.25;4172312;84;21093;-90
2022/03/13 11:55:11;;;;;;;13.40;8.00;;;;;;;13.71;28.51;99982.75;4316878;81;21049;-89
2022/03/13 12:01:35;;;;;;;10.03;6.17;;;;;;;13.58;24.80;99980.00;4152478;81;21089;-90
2022/03/13 12:08:05;;;;;;;17.07;8.43;;;;;;;13.06;23.23;99968.98;4100009;85;21024;-89
2022/03/13 12:14:16;;;;;;;14.28;8.23;;;;;;;12.37;24.65;99966.73;4147322;85;21103;-89
2022/03/13 12:28:01;;;;;;;20.68;11.15;;;;;;;12.12;24.01;99956.44;4112573;85;21152;-87
2022/03/13 12:35:00;;;;;;;20.75;11.75;;;;;;;11.82;23.29;99954.84;3973994;88;21296;-90
2022/03/13 12:41:39;;;;;;;21.50;12.65;;;;;;;11.67;24.52;99954.87;3958233;88;21072;-86
2022/03/13 12:47:52;;;;;;;16.52;9.78;;;;;;;11.74;23.38;99947.61;3989600;88;21055;-86
2022/03/13 13:01:24;;;;;;;28.12;14.75;;;;;;;11.66;23.82;99940.95;4336503;81;21886;-86
2022/03/13 13:07:54;;;;;;;16.67;9.33;;;;;;;11.44;23.92;99936.11;4302404;81;22057;-85
2022/03/13 13:14:21;;;;;;;15.75;8.33;;;;;;;11.27;23.64;99935.14;4304837;81;21078;-88
2022/03/13 13:20:36;;;;;;;11.93;7.12;;;;;;;11.25;24.17;99929.22;4343714;81;21059;-89
2022/03/13 13:27:06;;;;;;;11.93;6.62;;;;;;;11.34;23.93;99922.39;4314145;81;21506;-89
2022/03/13 13:33:15;;;;;;;10.13;5.10;;;;;;;11.19;23.07;99923.79;4177910;84;22125;-88
2022/03/13 14:06:09;;;;;;;11.38;6.17;;;;;;;10.37;22.28;99929.19;4319313;81;21032;-89
2022/03/13 14:12:12;;;;;;;11.60;5.80;;;;;;;10.35;21.21;99930.11;4225734;83;22156;-89
2022/03/13 14:18:53;;;;;;;14.50;7.25;;;;;;;10.28;21.39;99918.18;4213217;83;20968;-88
2022/03/13 14:32:36;;;;;;;14.10;8.83;;;;;;;10.23;21.74;99925.27;4247380;83;20976;-89
2022/03/13 14:38:48;;;;;;;18.52;9.60;;;;;;;10.34;21.63;99919.51;4217898;83;21535;-89
2022/03/13 14:45:15;;;;;;;16.77;8.85;;;;;;;10.41;22.58;99916.97;4093818;84;21070;-88
2022/03/13 14:51:52;;;;;;;15.32;8.38;;;;;;;10.27;22.42;99920.14;4116597;84;21051;-89
2022/03/13 14:58:14;;;;;;;15.95;8.70;;;;;;;10.11;22.76;99923.97;4074850;86;20980;-90
2022/03/13 15:04:34;;;;;;;20.75;10.70;;;;;;;10.02;23.17;99916.47;4087790;85;21054;-88
2022/03/13 15:17:32;;;;;;;17.32;9.08;;;;;;;9.73;23.33;99921.70;4312130;81;21611;-88
2022/03/13 15:23:46;;;;;;;21.65;12.15;;;;;;;9.51;23.68;99930.41;4277321;81;21001;-87
2022/03/13 15:29:47;;;;;;;19.87;10.32;;;;;;;9.29;23.75;99934.44;4154664;85;21081;-89
2022/03/13 15:36:12;;;;;;;19.82;10.38;;;;;;;9.11;23.94;99937.77;4214992;83;21111;-89
2022/03/13 15:42:24;;;;;;;20.25;11.60;;;;;;;8.82;24.21;99940.14;4177454;83;21109;-88
2022/03/13 15:48:31;;;;;;;21.73;11.15;;;;;;;8.58;24.48;99937.95;4214219;83;21150;-87
2022/03/13 15:54:35;;;;;;;22.30;11.57;;;;;;;8.39;24.70;99939.86;4184104;83;21468;-88
2022/03/13 16:00:37;;;;;;;23.70;12.50;;;;;;;8.21;24.98;99944.41;4169381;83;21581;-87
2022/03/13 16:07:02;;;;;;;23.22;12.63;;;;;;;8.02;25.17;99946.27;4214159;83;21013;-88
2022/03/13 16:13:18;;;;;;;23.75;11.78;;;;;;;7.85;25.38;99953.25;4167377;83;21620;-88
2022/03/13 16:19:21;;;;;;;23.83;11.40;;;;;;;7.68;25.57;99957.48;4158116;82;21654;-89
2022/03/13 16:32:18;;;;;;;25.27;12.73;;;;;;;7.35;26.06;99966.92;4152726;83;21073;-87
2022/03/13 17:06:15;;;;;;;35.08;15.75;;;;;;;5.93;26.97;99998.03;4321718;81;21941;-87
2022/03/13 18:00:24;;;;;;;31.33;16.37;;;;;;;3.96;29.10;100032.77;3920755;89;21116;-87
2022/03/13 18:06:34;;;;;;;38.40;16.48;;;;;;;3.81;29.48;100027.14;4009699;87;21063;-87
2022/03/13 18:13:21;;;;;;;35.50;18.37;;;;;;;3.63;29.78;100034.88;3975512;87;21124;-87
2022/03/13 18:32:25;;;;;;;48.75;25.40;;;;;;;3.00;30.91;100051.59;4062804;84;21092;-87
2022/03/13 18:38:27;;;;;;;60.67;28.67;;;;;;;2.85;31.37;100054.02;4299650;81;21841;-87
2022/03/13 18:59:48;;;;;;;64.42;30.65;;;;;;;2.11;32.12;100073.14;4258501;81;20985;-86
2022/03/13 19:12:44;;;;;;;70.40;33.42;;;;;;;1.41;34.07;100072.74;4330141;81;20144;-86
2022/03/13 19:39:24;;;;;;;72.70;31.37;;;;;;;0.69;36.18;100091.89;4276058;81;21111;-86
2022/03/13 19:52:57;;;;;;;70.35;30.50;;;;;;;0.62;35.85;100091.41;4127834;84;21055;-86
2022/03/13 20:14:22;;;;;;;67.72;29.23;;;;;;;0.85;36.29;100090.64;4073618;85;21114;-87
2022/03/13 20:26:56;;;;;;;67.05;28.50;;;;;;;1.05;36.75;100088.54;4220270;81;20946;-86
2022/03/13 20:33:02;;;;;;;60.88;26.23;;;;;;;1.08;37.32;100087.19;4225577;81;21020;-86
2022/03/13 20:39:28;;;;;;;63.90;26.27;;;;;;;1.10;37.50;100095.23;4244109;81;21923;-86
2022/03/13 20:45:52;;;;;;;61.80;27.85;;;;;;;1.06;38.48;100099.61;4230209;81;21501;-86
2022/03/13 20:51:54;;;;;;;75.45;33.45;;;;;;;1.01;38.92;100102.34;4286243;81;20988;-86
2022/03/13 21:32:56;;;;;;;82.75;32.03;;;;;;;0.14;41.06;100114.70;4090824;85;21013;-86
2022/03/13 21:39:40;;;;;;;64.90;27.07;;;;;;;0.01;41.70;100112.62;4139140;81;21054;-86
2022/03/13 21:46:06;;;;;;;60.30;27.62;;;;;;;0.01;41.70;100112.62;4215756;81;21073;-86
2022/03/13 21:59:25;;;;;;;;;;;;;;;-0.07;42.44;100121.28;4178652;81;21092;-86
2022/03/13 22:05:44;;;;;;;132.63;43.92;;;;;;;-0.21;45.35;100126.48;4310506;81;20133;-86
2022/03/13 22:12:10;;;;;;;110.70;41.73;;;;;;;-0.26;43.42;100129.72;4305069;81;21002;-86
2022/03/13 22:18:13;;;;;;;107.72;40.30;;;;;;;-0.35;43.58;100124.66;4299578;81;21079;-85
2022/03/13 22:32:23;;;;;;;108.07;46.10;;;;;;;-0.82;43.82;100133.70;4127373;83;22175;-86
2022/03/13 22:38:42;;;;;;;88.47;37.05;;;;;;;-0.90;44.73;100138.28;4167662;83;21097;-86
2022/03/13 22:44:43;;;;;;;73.17;29.87;;;;;;;-0.92;45.17;100127.81;4310798;81;21047;-86
2022/03/13 22:57:45;;;;;;;132.37;47.93;;;;;;;-0.96;47.57;100136.16;4107492;85;20999;-86
2022/03/13 23:03:51;;;;;;;110.67;44.17;;;;;;;-1.17;46.76;100129.72;4098726;84;21193;-85
2022/03/13 23:17:43;;;;;;;;;;;;;;;-1.35;47.02;100128.42;4126841;84;21116;-85
2022/03/13 23:38:16;;;;;;;116.03;43.13;;;;;;;-1.52;48.73;100139.16;4181324;84;21091;-85
2022/03/13 23:51:40;;;;;;;86.27;36.93;;;;;;;-1.49;49.91;100144.81;4188164;84;21048;-85
